sensor_id;sensor_type;location;lat;lon;timestamp;P1;durP1;ratioP1;P2;durP2;ratioP2
35644;SDS011;21764;52.042;6.830;2022-07-04T00:00:36;8.45;;;4.90;;
35644;SDS011;21764;52.042;6.830;2022-07-04T00:05:37;6.95;;;4.50;;
35644;SDS011;21764;52.042;6.830;2022-07-04T00:10:38;8.80;;;4.40;;
35644;SDS011;21764;52.042;6.830;2022-07-04T00:15:38;6.57;;;4.30;;
35644;SDS011;21764;52.042;6.830;2022-07-04T00:20:40;9.98;;;4.50;;
35644;SDS011;21764;52.042;6.830;2022-07-04T00:25:41;7.10;;;4.50;;
35644;SDS011;21764;52.042;6.830;2022-07-04T00:30:41;6.20;;;4.10;;
35644;SDS011;21764;52.042;6.830;2022-07-04T00:35:42;10.43;;;4.20;;
35644;SDS011;21764;52.042;6.830;2022-07-04T00:40:43;7.93;;;4.20;;
35644;SDS011;21764;52.042;6.830;2022-07-04T00:45:44;8.80;;;4.13;;
35644;SDS011;21764;52.042;6.830;2022-07-04T00:50:45;5.65;;;4.22;;
35644;SDS011;21764;52.042;6.830;2022-07-04T00:55:46;6.70;;;4.38;;
35644;SDS011;21764;52.042;6.830;2022-07-04T01:00:48;7.63;;;4.60;;
35644;SDS011;21764;52.042;6.830;2022-07-04T01:05:49;7.30;;;4.82;;
35644;SDS011;21764;52.042;6.830;2022-07-04T01:10:51;8.57;;;5.18;;
35644;SDS011;21764;52.042;6.830;2022-07-04T01:15:51;9.30;;;4.53;;
35644;SDS011;21764;52.042;6.830;2022-07-04T01:20:52;11.95;;;4.80;;
35644;SDS011;21764;52.042;6.830;2022-07-04T01:25:53;8.23;;;5.05;;
35644;SDS011;21764;52.042;6.830;2022-07-04T01:30:54;9.40;;;4.95;;
35644;SDS011;21764;52.042;6.830;2022-07-04T01:35:55;8.23;;;4.95;;
35644;SDS011;21764;52.042;6.830;2022-07-04T01:40:56;10.27;;;5.30;;
35644;SDS011;21764;52.042;6.830;2022-07-04T01:45:56;13.75;;;5.68;;
35644;SDS011;21764;52.042;6.830;2022-07-04T01:50:57;10.40;;;5.32;;
35644;SDS011;21764;52.042;6.830;2022-07-04T01:55:58;9.10;;;5.40;;
35644;SDS011;21764;52.042;6.830;2022-07-04T02:00:59;10.82;;;5.88;;
35644;SDS011;21764;52.042;6.830;2022-07-04T02:06:18;11.90;;;6.28;;
35644;SDS011;21764;52.042;6.830;2022-07-04T02:11:18;10.32;;;6.22;;
35644;SDS011;21764;52.042;6.830;2022-07-04T02:16:19;10.43;;;6.30;;
35644;SDS011;21764;52.042;6.830;2022-07-04T02:21:20;12.25;;;6.03;;
35644;SDS011;21764;52.042;6.830;2022-07-04T02:26:20;12.38;;;6.13;;
35644;SDS011;21764;52.042;6.830;2022-07-04T02:31:21;13.38;;;6.63;;
35644;SDS011;21764;52.042;6.830;2022-07-04T02:36:22;14.95;;;6.70;;
35644;SDS011;21764;52.042;6.830;2022-07-04T02:41:22;11.80;;;7.47;;
35644;SDS011;21764;52.042;6.830;2022-07-04T02:46:23;15.95;;;7.18;;
35644;SDS011;21764;52.042;6.830;2022-07-04T02:51:24;12.57;;;7.55;;
35644;SDS011;21764;52.042;6.830;2022-07-04T02:56:25;11.25;;;7.43;;
35644;SDS011;21764;52.042;6.830;2022-07-04T03:01:26;16.52;;;8.63;;
35644;SDS011;21764;52.042;6.830;2022-07-04T03:06:26;17.52;;;7.78;;
35644;SDS011;21764;52.042;6.830;2022-07-04T03:11:27;18.17;;;8.63;;
35644;SDS011;21764;52.042;6.830;2022-07-04T03:16:28;16.02;;;9.00;;
35644;SDS011;21764;52.042;6.830;2022-07-04T03:21:28;19.48;;;10.82;;
35644;SDS011;21764;52.042;6.830;2022-07-04T03:26:30;14.50;;;8.65;;
35644;SDS011;21764;52.042;6.830;2022-07-04T03:31:32;14.80;;;9.05;;
35644;SDS011;21764;52.042;6.830;2022-07-04T03:36:32;14.52;;;8.27;;
35644;SDS011;21764;52.042;6.830;2022-07-04T03:41:33;15.30;;;9.05;;
35644;SDS011;21764;52.042;6.830;2022-07-04T03:46:34;15.77;;;8.15;;
35644;SDS011;21764;52.042;6.830;2022-07-04T03:51:34;13.45;;;8.27;;
35644;SDS011;21764;52.042;6.830;2022-07-04T03:56:35;19.05;;;8.20;;
35644;SDS011;21764;52.042;6.830;2022-07-04T04:01:36;11.45;;;6.10;;
35644;SDS011;21764;52.042;6.830;2022-07-04T04:06:36;14.10;;;6.30;;
35644;SDS011;21764;52.042;6.830;2022-07-04T04:11:37;14.90;;;6.07;;
35644;SDS011;21764;52.042;6.830;2022-07-04T04:16:38;14.18;;;6.13;;
35644;SDS011;21764;52.042;6.830;2022-07-04T04:21:39;13.02;;;6.10;;
35644;SDS011;21764;52.042;6.830;2022-07-04T04:26:39;12.40;;;6.10;;
35644;SDS011;21764;52.042;6.830;2022-07-04T04:31:40;13.10;;;6.00;;
35644;SDS011;21764;52.042;6.830;2022-07-04T04:36:41;9.82;;;5.47;;
35644;SDS011;21764;52.042;6.830;2022-07-04T04:41:41;9.75;;;5.45;;
35644;SDS011;21764;52.042;6.830;2022-07-04T04:46:42;11.93;;;5.40;;
35644;SDS011;21764;52.042;6.830;2022-07-04T04:51:43;9.45;;;5.68;;
35644;SDS011;21764;52.042;6.830;2022-07-04T04:56:44;13.90;;;5.70;;
35644;SDS011;21764;52.042;6.830;2022-07-04T05:01:44;10.77;;;5.28;;
35644;SDS011;21764;52.042;6.830;2022-07-04T05:06:45;8.27;;;4.70;;
35644;SDS011;21764;52.042;6.830;2022-07-04T05:11:46;13.30;;;5.05;;
35644;SDS011;21764;52.042;6.830;2022-07-04T05:16:47;16.25;;;4.93;;
35644;SDS011;21764;52.042;6.830;2022-07-04T05:21:48;8.15;;;4.32;;
35644;SDS011;21764;52.042;6.830;2022-07-04T05:26:48;10.55;;;3.67;;
35644;SDS011;21764;52.042;6.830;2022-07-04T05:31:49;11.40;;;3.83;;
35644;SDS011;21764;52.042;6.830;2022-07-04T05:36:50;9.15;;;3.65;;
35644;SDS011;21764;52.042;6.830;2022-07-04T05:41:50;10.10;;;3.63;;
35644;SDS011;21764;52.042;6.830;2022-07-04T05:46:51;8.13;;;3.13;;
35644;SDS011;21764;52.042;6.830;2022-07-04T05:51:52;10.52;;;3.30;;
35644;SDS011;21764;52.042;6.830;2022-07-04T05:56:52;6.55;;;2.80;;
35644;SDS011;21764;52.042;6.830;2022-07-04T06:01:53;10.18;;;2.97;;
35644;SDS011;21764;52.042;6.830;2022-07-04T06:06:54;6.47;;;2.50;;
35644;SDS011;21764;52.042;6.830;2022-07-04T06:11:54;7.60;;;2.83;;
35644;SDS011;21764;52.042;6.830;2022-07-04T06:16:55;10.30;;;2.90;;
35644;SDS011;21764;52.042;6.830;2022-07-04T06:21:56;6.53;;;2.53;;
35644;SDS011;21764;52.042;6.830;2022-07-04T06:26:56;6.88;;;2.53;;
35644;SDS011;21764;52.042;6.830;2022-07-04T06:31:57;8.73;;;2.80;;
35644;SDS011;21764;52.042;6.830;2022-07-04T06:36:58;7.43;;;2.72;;
35644;SDS011;21764;52.042;6.830;2022-07-04T06:41:59;6.00;;;2.70;;
35644;SDS011;21764;52.042;6.830;2022-07-04T06:46:59;7.82;;;2.78;;
35644;SDS011;21764;52.042;6.830;2022-07-04T06:52:00;12.88;;;2.63;;
35644;SDS011;21764;52.042;6.830;2022-07-04T06:57:00;7.35;;;2.47;;
35644;SDS011;21764;52.042;6.830;2022-07-04T07:02:01;6.75;;;2.40;;
35644;SDS011;21764;52.042;6.830;2022-07-04T07:07:02;10.73;;;2.90;;
35644;SDS011;21764;52.042;6.830;2022-07-04T07:12:03;5.60;;;2.38;;
35644;SDS011;21764;52.042;6.830;2022-07-04T07:17:04;9.13;;;2.75;;
35644;SDS011;21764;52.042;6.830;2022-07-04T07:22:05;7.43;;;2.20;;
35644;SDS011;21764;52.042;6.830;2022-07-04T07:27:05;8.23;;;2.55;;
35644;SDS011;21764;52.042;6.830;2022-07-04T07:32:06;8.50;;;2.30;;
35644;SDS011;21764;52.042;6.830;2022-07-04T07:37:07;6.45;;;1.92;;
35644;SDS011;21764;52.042;6.830;2022-07-04T07:42:08;8.63;;;2.15;;
35644;SDS011;21764;52.042;6.830;2022-07-04T07:47:09;7.50;;;1.80;;
35644;SDS011;21764;52.042;6.830;2022-07-04T07:52:10;5.50;;;1.70;;
35644;SDS011;21764;52.042;6.830;2022-07-04T07:57:10;7.35;;;1.70;;
35644;SDS011;21764;52.042;6.830;2022-07-04T08:02:11;5.40;;;1.75;;
35644;SDS011;21764;52.042;6.830;2022-07-04T08:07:12;8.20;;;1.85;;
35644;SDS011;21764;52.042;6.830;2022-07-04T08:12:12;4.45;;;2.00;;
35644;SDS011;21764;52.042;6.830;2022-07-04T08:17:13;8.90;;;2.03;;
35644;SDS011;21764;52.042;6.830;2022-07-04T08:22:14;7.05;;;1.70;;
35644;SDS011;21764;52.042;6.830;2022-07-04T08:27:14;10.82;;;1.98;;
35644;SDS011;21764;52.042;6.830;2022-07-04T08:32:15;13.05;;;1.92;;
35644;SDS011;21764;52.042;6.830;2022-07-04T08:37:16;8.02;;;1.75;;
35644;SDS011;21764;52.042;6.830;2022-07-04T08:42:17;11.37;;;1.90;;
35644;SDS011;21764;52.042;6.830;2022-07-04T08:47:24;8.85;;;1.75;;
35644;SDS011;21764;52.042;6.830;2022-07-04T08:52:34;7.03;;;2.20;;
35644;SDS011;21764;52.042;6.830;2022-07-04T08:57:37;6.57;;;1.85;;
35644;SDS011;21764;52.042;6.830;2022-07-04T09:02:57;7.32;;;1.90;;
35644;SDS011;21764;52.042;6.830;2022-07-04T09:08:01;7.55;;;2.03;;
35644;SDS011;21764;52.042;6.830;2022-07-04T09:13:04;6.20;;;1.50;;
35644;SDS011;21764;52.042;6.830;2022-07-04T09:18:06;7.22;;;1.35;;
35644;SDS011;21764;52.042;6.830;2022-07-04T09:23:20;8.60;;;1.73;;
35644;SDS011;21764;52.042;6.830;2022-07-04T09:28:28;6.32;;;1.70;;
35644;SDS011;21764;52.042;6.830;2022-07-04T09:33:45;6.95;;;1.60;;
35644;SDS011;21764;52.042;6.830;2022-07-04T09:44:17;7.93;;;1.95;;
35644;SDS011;21764;52.042;6.830;2022-07-04T09:49:19;10.13;;;2.10;;
35644;SDS011;21764;52.042;6.830;2022-07-04T09:54:29;9.45;;;1.80;;
35644;SDS011;21764;52.042;6.830;2022-07-04T09:59:33;8.90;;;2.00;;
35644;SDS011;21764;52.042;6.830;2022-07-04T10:04:44;7.88;;;2.45;;
35644;SDS011;21764;52.042;6.830;2022-07-04T10:09:49;7.35;;;1.92;;
35644;SDS011;21764;52.042;6.830;2022-07-04T10:14:50;6.93;;;3.38;;
35644;SDS011;21764;52.042;6.830;2022-07-04T10:19:51;5.15;;;2.65;;
35644;SDS011;21764;52.042;6.830;2022-07-04T10:24:53;4.77;;;2.13;;
35644;SDS011;21764;52.042;6.830;2022-07-04T10:29:53;11.73;;;2.88;;
35644;SDS011;21764;52.042;6.830;2022-07-04T10:34:54;8.23;;;1.38;;
35644;SDS011;21764;52.042;6.830;2022-07-04T10:39:55;8.25;;;1.77;;
35644;SDS011;21764;52.042;6.830;2022-07-04T10:45:00;5.97;;;1.95;;
35644;SDS011;21764;52.042;6.830;2022-07-04T10:50:01;8.13;;;1.60;;
35644;SDS011;21764;52.042;6.830;2022-07-04T10:55:10;7.10;;;1.92;;
35644;SDS011;21764;52.042;6.830;2022-07-04T11:00:11;6.60;;;1.67;;
35644;SDS011;21764;52.042;6.830;2022-07-04T11:05:12;10.57;;;1.85;;
35644;SDS011;21764;52.042;6.830;2022-07-04T11:15:15;7.00;;;1.90;;
35644;SDS011;21764;52.042;6.830;2022-07-04T11:20:20;7.05;;;2.00;;
35644;SDS011;21764;52.042;6.830;2022-07-04T11:25:22;4.03;;;1.48;;
35644;SDS011;21764;52.042;6.830;2022-07-04T11:30:23;9.73;;;1.75;;
35644;SDS011;21764;52.042;6.830;2022-07-04T11:35:23;8.55;;;1.50;;
35644;SDS011;21764;52.042;6.830;2022-07-04T11:40:24;6.72;;;1.45;;
35644;SDS011;21764;52.042;6.830;2022-07-04T11:46:11;7.22;;;1.90;;
35644;SDS011;21764;52.042;6.830;2022-07-04T11:51:16;8.40;;;1.80;;
35644;SDS011;21764;52.042;6.830;2022-07-04T11:56:17;8.55;;;1.83;;
35644;SDS011;21764;52.042;6.830;2022-07-04T12:01:26;6.82;;;1.65;;
35644;SDS011;21764;52.042;6.830;2022-07-04T12:06:28;12.55;;;2.08;;
35644;SDS011;21764;52.042;6.830;2022-07-04T12:27:34;6.32;;;1.90;;
35644;SDS011;21764;52.042;6.830;2022-07-04T12:32:45;9.95;;;1.95;;
35644;SDS011;21764;52.042;6.830;2022-07-04T12:38:00;11.15;;;2.95;;
35644;SDS011;21764;52.042;6.830;2022-07-04T12:43:04;12.20;;;2.83;;
35644;SDS011;21764;52.042;6.830;2022-07-04T12:48:05;11.75;;;2.20;;
35644;SDS011;21764;52.042;6.830;2022-07-04T12:53:15;8.95;;;2.17;;
35644;SDS011;21764;52.042;6.830;2022-07-04T12:58:17;12.38;;;2.88;;
35644;SDS011;21764;52.042;6.830;2022-07-04T13:03:17;11.20;;;2.53;;
35644;SDS011;21764;52.042;6.830;2022-07-04T13:08:18;7.80;;;2.72;;
35644;SDS011;21764;52.042;6.830;2022-07-04T13:13:19;6.82;;;2.17;;
35644;SDS011;21764;52.042;6.830;2022-07-04T13:18:19;13.65;;;2.55;;
35644;SDS011;21764;52.042;6.830;2022-07-04T13:23:20;10.40;;;3.45;;
35644;SDS011;21764;52.042;6.830;2022-07-04T13:28:20;6.97;;;2.42;;
35644;SDS011;21764;52.042;6.830;2022-07-04T13:33:21;9.82;;;2.53;;
35644;SDS011;21764;52.042;6.830;2022-07-04T13:38:22;10.05;;;2.17;;
35644;SDS011;21764;52.042;6.830;2022-07-04T13:43:23;10.02;;;2.75;;
35644;SDS011;21764;52.042;6.830;2022-07-04T13:48:24;8.48;;;2.28;;
35644;SDS011;21764;52.042;6.830;2022-07-04T13:53:25;7.18;;;1.98;;
35644;SDS011;21764;52.042;6.830;2022-07-04T13:58:26;12.10;;;3.03;;
35644;SDS011;21764;52.042;6.830;2022-07-04T14:03:26;10.85;;;2.90;;
35644;SDS011;21764;52.042;6.830;2022-07-04T14:08:27;10.27;;;2.05;;
35644;SDS011;21764;52.042;6.830;2022-07-04T14:13:28;9.55;;;2.67;;
35644;SDS011;21764;52.042;6.830;2022-07-04T14:18:29;8.25;;;2.53;;
35644;SDS011;21764;52.042;6.830;2022-07-04T14:23:29;5.47;;;2.35;;
35644;SDS011;21764;52.042;6.830;2022-07-04T14:28:42;8.63;;;2.30;;
35644;SDS011;21764;52.042;6.830;2022-07-04T14:38:47;11.23;;;2.17;;
35644;SDS011;21764;52.042;6.830;2022-07-04T14:43:47;8.48;;;2.25;;
35644;SDS011;21764;52.042;6.830;2022-07-04T14:48:48;9.55;;;2.03;;
35644;SDS011;21764;52.042;6.830;2022-07-04T14:53:49;9.02;;;2.10;;
35644;SDS011;21764;52.042;6.830;2022-07-04T14:58:49;7.65;;;2.67;;
35644;SDS011;21764;52.042;6.830;2022-07-04T15:03:50;4.85;;;1.80;;
35644;SDS011;21764;52.042;6.830;2022-07-04T15:08:51;6.47;;;2.10;;
35644;SDS011;21764;52.042;6.830;2022-07-04T15:13:52;8.15;;;2.03;;
35644;SDS011;21764;52.042;6.830;2022-07-04T15:18:53;4.93;;;1.58;;
35644;SDS011;21764;52.042;6.830;2022-07-04T15:23:54;6.50;;;1.90;;
35644;SDS011;21764;52.042;6.830;2022-07-04T15:29:15;7.50;;;1.85;;
35644;SDS011;21764;52.042;6.830;2022-07-04T15:34:18;8.20;;;2.13;;
35644;SDS011;21764;52.042;6.830;2022-07-04T15:39:19;6.63;;;2.10;;
35644;SDS011;21764;52.042;6.830;2022-07-04T15:44:20;4.45;;;1.63;;
35644;SDS011;21764;52.042;6.830;2022-07-04T15:49:21;3.67;;;1.50;;
35644;SDS011;21764;52.042;6.830;2022-07-04T15:54:22;3.22;;;1.40;;
35644;SDS011;21764;52.042;6.830;2022-07-04T15:59:22;8.95;;;1.80;;
35644;SDS011;21764;52.042;6.830;2022-07-04T16:04:23;8.65;;;2.05;;
35644;SDS011;21764;52.042;6.830;2022-07-04T16:09:24;5.95;;;1.70;;
35644;SDS011;21764;52.042;6.830;2022-07-04T16:14:25;9.38;;;1.50;;
35644;SDS011;21764;52.042;6.830;2022-07-04T16:19:26;5.88;;;1.40;;
35644;SDS011;21764;52.042;6.830;2022-07-04T16:24:27;4.85;;;1.98;;
35644;SDS011;21764;52.042;6.830;2022-07-04T16:29:27;3.15;;;1.38;;
35644;SDS011;21764;52.042;6.830;2022-07-04T16:34:28;6.88;;;1.55;;
35644;SDS011;21764;52.042;6.830;2022-07-04T16:39:29;5.68;;;2.25;;
35644;SDS011;21764;52.042;6.830;2022-07-04T16:44:29;4.40;;;1.80;;
35644;SDS011;21764;52.042;6.830;2022-07-04T16:49:30;3.50;;;1.45;;
35644;SDS011;21764;52.042;6.830;2022-07-04T16:54:31;5.93;;;1.55;;
35644;SDS011;21764;52.042;6.830;2022-07-04T16:59:32;4.90;;;1.23;;
35644;SDS011;21764;52.042;6.830;2022-07-04T17:04:32;4.38;;;1.45;;
35644;SDS011;21764;52.042;6.830;2022-07-04T17:09:33;4.75;;;1.40;;
35644;SDS011;21764;52.042;6.830;2022-07-04T17:14:34;6.90;;;1.65;;
35644;SDS011;21764;52.042;6.830;2022-07-04T17:19:34;9.75;;;1.23;;
35644;SDS011;21764;52.042;6.830;2022-07-04T17:24:35;2.00;;;1.17;;
35644;SDS011;21764;52.042;6.830;2022-07-04T17:29:36;2.20;;;1.30;;
35644;SDS011;21764;52.042;6.830;2022-07-04T17:34:37;2.97;;;1.27;;
35644;SDS011;21764;52.042;6.830;2022-07-04T17:39:37;2.33;;;1.30;;
35644;SDS011;21764;52.042;6.830;2022-07-04T17:44:38;4.45;;;1.42;;
35644;SDS011;21764;52.042;6.830;2022-07-04T17:49:41;10.90;;;1.70;;
35644;SDS011;21764;52.042;6.830;2022-07-04T17:54:43;3.47;;;1.30;;
35644;SDS011;21764;52.042;6.830;2022-07-04T17:59:44;4.20;;;1.50;;
35644;SDS011;21764;52.042;6.830;2022-07-04T18:04:45;3.78;;;1.48;;
35644;SDS011;21764;52.042;6.830;2022-07-04T18:09:46;4.95;;;1.77;;
35644;SDS011;21764;52.042;6.830;2022-07-04T18:14:47;5.60;;;1.30;;
35644;SDS011;21764;52.042;6.830;2022-07-04T18:19:47;4.15;;;1.23;;
35644;SDS011;21764;52.042;6.830;2022-07-04T18:24:48;2.90;;;1.15;;
35644;SDS011;21764;52.042;6.830;2022-07-04T18:29:48;2.80;;;1.42;;
35644;SDS011;21764;52.042;6.830;2022-07-04T18:34:49;2.90;;;1.30;;
35644;SDS011;21764;52.042;6.830;2022-07-04T18:39:50;5.88;;;1.45;;
35644;SDS011;21764;52.042;6.830;2022-07-04T18:44:50;3.80;;;1.30;;
35644;SDS011;21764;52.042;6.830;2022-07-04T18:49:51;4.53;;;1.35;;
35644;SDS011;21764;52.042;6.830;2022-07-04T18:54:54;2.78;;;1.40;;
35644;SDS011;21764;52.042;6.830;2022-07-04T18:59:54;5.53;;;1.77;;
35644;SDS011;21764;52.042;6.830;2022-07-04T19:05:00;4.40;;;1.45;;
35644;SDS011;21764;52.042;6.830;2022-07-04T19:10:01;6.30;;;1.90;;
35644;SDS011;21764;52.042;6.830;2022-07-04T19:15:03;7.32;;;1.48;;
35644;SDS011;21764;52.042;6.830;2022-07-04T19:20:04;5.50;;;1.60;;
35644;SDS011;21764;52.042;6.830;2022-07-04T19:25:05;7.07;;;1.60;;
35644;SDS011;21764;52.042;6.830;2022-07-04T19:30:07;7.72;;;1.83;;
35644;SDS011;21764;52.042;6.830;2022-07-04T19:35:09;6.40;;;1.75;;
35644;SDS011;21764;52.042;6.830;2022-07-04T19:40:10;6.57;;;2.05;;
35644;SDS011;21764;52.042;6.830;2022-07-04T19:45:12;3.95;;;1.40;;
35644;SDS011;21764;52.042;6.830;2022-07-04T19:50:12;5.43;;;1.60;;
35644;SDS011;21764;52.042;6.830;2022-07-04T19:55:13;2.58;;;1.67;;
35644;SDS011;21764;52.042;6.830;2022-07-04T20:00:14;4.93;;;1.95;;
35644;SDS011;21764;52.042;6.830;2022-07-04T20:05:16;5.22;;;2.38;;
35644;SDS011;21764;52.042;6.830;2022-07-04T20:10:18;4.35;;;2.08;;
35644;SDS011;21764;52.042;6.830;2022-07-04T20:15:19;7.43;;;2.55;;
35644;SDS011;21764;52.042;6.830;2022-07-04T20:20:19;4.75;;;1.80;;
35644;SDS011;21764;52.042;6.830;2022-07-04T20:25:20;6.57;;;2.67;;
35644;SDS011;21764;52.042;6.830;2022-07-04T20:30:21;2.92;;;1.70;;
35644;SDS011;21764;52.042;6.830;2022-07-04T20:35:21;4.35;;;1.63;;
35644;SDS011;21764;52.042;6.830;2022-07-04T20:40:22;5.53;;;2.10;;
35644;SDS011;21764;52.042;6.830;2022-07-04T20:45:23;7.40;;;1.83;;
35644;SDS011;21764;52.042;6.830;2022-07-04T20:50:24;10.07;;;2.30;;
35644;SDS011;21764;52.042;6.830;2022-07-04T20:55:25;4.25;;;1.95;;
35644;SDS011;21764;52.042;6.830;2022-07-04T21:00:26;5.38;;;2.05;;
35644;SDS011;21764;52.042;6.830;2022-07-04T21:05:26;8.15;;;1.90;;
35644;SDS011;21764;52.042;6.830;2022-07-04T21:10:27;5.97;;;2.22;;
35644;SDS011;21764;52.042;6.830;2022-07-04T21:15:28;6.57;;;2.47;;
35644;SDS011;21764;52.042;6.830;2022-07-04T21:20:28;4.65;;;2.00;;
35644;SDS011;21764;52.042;6.830;2022-07-04T21:25:29;8.88;;;2.33;;
35644;SDS011;21764;52.042;6.830;2022-07-04T21:30:30;7.35;;;2.15;;
35644;SDS011;21764;52.042;6.830;2022-07-04T21:35:31;6.32;;;2.30;;
35644;SDS011;21764;52.042;6.830;2022-07-04T21:40:32;4.35;;;2.15;;
35644;SDS011;21764;52.042;6.830;2022-07-04T21:45:32;5.38;;;2.00;;
35644;SDS011;21764;52.042;6.830;2022-07-04T21:50:33;6.35;;;2.15;;
35644;SDS011;21764;52.042;6.830;2022-07-04T21:55:34;4.82;;;2.45;;
35644;SDS011;21764;52.042;6.830;2022-07-04T22:00:34;7.00;;;2.53;;
35644;SDS011;21764;52.042;6.830;2022-07-04T22:05:35;5.72;;;2.42;;
35644;SDS011;21764;52.042;6.830;2022-07-04T22:10:36;6.80;;;2.50;;
35644;SDS011;21764;52.042;6.830;2022-07-04T22:15:37;7.05;;;2.65;;
35644;SDS011;21764;52.042;6.830;2022-07-04T22:20:38;10.70;;;2.90;;
35644;SDS011;21764;52.042;6.830;2022-07-04T22:25:38;5.60;;;2.60;;
35644;SDS011;21764;52.042;6.830;2022-07-04T22:36:36;6.18;;;3.63;;
35644;SDS011;21764;52.042;6.830;2022-07-04T22:41:37;6.43;;;3.15;;
35644;SDS011;21764;52.042;6.830;2022-07-04T22:46:38;10.70;;;3.80;;
35644;SDS011;21764;52.042;6.830;2022-07-04T22:51:39;8.63;;;3.10;;
35644;SDS011;21764;52.042;6.830;2022-07-04T22:56:40;9.85;;;3.78;;
35644;SDS011;21764;52.042;6.830;2022-07-04T23:01:40;8.60;;;3.55;;
35644;SDS011;21764;52.042;6.830;2022-07-04T23:06:41;3.88;;;3.50;;
35644;SDS011;21764;52.042;6.830;2022-07-04T23:11:42;6.72;;;3.45;;
35644;SDS011;21764;52.042;6.830;2022-07-04T23:16:42;11.13;;;4.97;;
35644;SDS011;21764;52.042;6.830;2022-07-04T23:21:43;9.18;;;4.40;;
35644;SDS011;21764;52.042;6.830;2022-07-04T23:26:44;9.85;;;3.92;;
35644;SDS011;21764;52.042;6.830;2022-07-04T23:31:44;7.45;;;4.10;;
35644;SDS011;21764;52.042;6.830;2022-07-04T23:36:45;12.43;;;4.43;;
35644;SDS011;21764;52.042;6.830;2022-07-04T23:41:46;7.43;;;4.30;;
35644;SDS011;21764;52.042;6.830;2022-07-04T23:46:47;9.15;;;4.15;;
35644;SDS011;21764;52.042;6.830;2022-07-04T23:51:47;7.40;;;4.30;;
35644;SDS011;21764;52.042;6.830;2022-07-04T23:56:48;8.90;;;5.22;;
